Time;durP1;ratioP1;P1;durP2;ratioP2;P2;SDS_P1;SDS_P2;PMS_P1;PMS_P2;Temp;Humidity;BMP_temperature;BMP_pressure;BME280_temperature;BME280_humidity;BME280_pressure;Samples;Min_cycle;Max_cycle;Signal;HPM_P1;HPM_P2
2022/06/04 00:00:08;;;;;;;2.70;2.60;;;14.50;99.90;;;;;;481336;247;28907;-72
2022/06/04 00:02:09;;;;;;;2.97;2.80;;;14.40;99.90;;;;;;481324;247;29274;-72
2022/06/04 00:04:12;;;;;;;2.90;2.70;;;14.50;99.90;;;;;;481362;247;28937;-75
2022/06/04 00:06:11;;;;;;;2.93;2.73;;;14.40;99.90;;;;;;481257;247;28758;-72
2022/06/04 00:08:13;;;;;;;2.87;2.67;;;14.40;99.90;;;;;;481329;247;28876;-73
2022/06/04 00:17:13;;;;;;;2.50;2.40;;;14.30;99.90;;;;;;481341;247;29282;-73
2022/06/04 00:19:14;;;;;;;2.53;2.43;;;14.30;99.90;;;;;;481318;247;29289;-72
2022/06/04 00:21:15;;;;;;;2.90;2.70;;;14.30;99.90;;;;;;481320;247;29727;-72
2022/06/04 00:23:16;;;;;;;2.47;2.37;;;14.30;99.90;;;;;;481310;247;28802;-72
2022/06/04 00:25:18;;;;;;;2.70;2.53;;;14.20;99.90;;;;;;481297;247;28759;-72
2022/06/04 00:27:19;;;;;;;2.70;2.50;;;14.20;99.90;;;;;;481304;247;28473;-74
2022/06/04 00:29:20;;;;;;;3.20;2.90;;;14.20;99.90;;;;;;481318;247;28342;-72
2022/06/04 00:31:21;;;;;;;2.40;2.30;;;14.20;99.90;;;;;;481329;247;28807;-72
2022/06/04 00:33:23;;;;;;;2.40;2.30;;;14.10;99.90;;;;;;481338;247;28213;-72
2022/06/04 00:35:24;;;;;;;2.80;2.60;;;14.10;99.90;;;;;;481326;247;28482;-72
2022/06/04 00:37:25;;;;;;;2.63;2.50;;;14.10;99.90;;;;;;481335;247;28726;-74
2022/06/04 00:39:26;;;;;;;3.10;2.90;;;14.10;99.90;;;;;;481362;247;28560;-72
2022/06/04 00:41:28;;;;;;;2.70;2.50;;;14.20;99.90;;;;;;481358;247;28923;-73
2022/06/04 00:43:29;;;;;;;2.90;2.70;;;14.20;99.90;;;;;;481374;247;28861;-72
2022/06/04 00:45:30;;;;;;;2.90;2.70;;;14.30;99.90;;;;;;481372;247;28900;-72
2022/06/04 00:47:31;;;;;;;2.90;2.70;;;14.30;99.90;;;;;;481372;247;28483;-73
2022/06/04 00:49:33;;;;;;;3.00;2.80;;;14.30;99.90;;;;;;481352;246;28464;-71
2022/06/04 00:51:34;;;;;;;3.40;3.20;;;14.20;99.90;;;;;;481333;247;28488;-72
2022/06/04 00:53:35;;;;;;;2.90;2.70;;;14.30;99.90;;;;;;481365;247;28791;-72
2022/06/04 00:55:36;;;;;;;2.93;2.73;;;14.30;99.90;;;;;;481352;247;28445;-72
2022/06/04 00:57:38;;;;;;;2.70;2.60;;;14.30;99.90;;;;;;481346;247;28260;-72
2022/06/04 00:59:39;;;;;;;2.70;2.60;;;14.30;99.90;;;;;;481339;247;28846;-72
2022/06/04 01:01:40;;;;;;;2.90;2.70;;;14.30;99.90;;;;;;481331;247;28563;-72
2022/06/04 01:03:41;;;;;;;2.90;2.70;;;14.30;99.90;;;;;;481344;247;28363;-72
2022/06/04 01:05:43;;;;;;;2.63;2.43;;;14.30;99.90;;;;;;481353;247;29328;-71
2022/06/04 01:07:47;;;;;;;2.87;2.67;;;14.20;99.90;;;;;;481366;247;28953;-73
2022/06/04 01:09:45;;;;;;;3.00;2.80;;;14.20;99.90;;;;;;481119;247;29623;-72
2022/06/04 01:14:06;;;;;;;2.93;2.73;;;14.20;99.90;;;;;;481362;247;28938;-73
2022/06/04 01:16:07;;;;;;;2.60;2.50;;;14.10;99.90;;;;;;481336;247;28973;-72
2022/06/04 01:18:08;;;;;;;2.70;2.60;;;14.10;99.90;;;;;;481339;247;28976;-73
2022/06/04 01:20:10;;;;;;;2.90;2.70;;;14.10;99.90;;;;;;481329;247;28853;-72
2022/06/04 01:22:11;;;;;;;2.93;2.67;;;14.10;99.90;;;;;;481336;247;28450;-72
2022/06/04 01:24:13;;;;;;;2.90;2.70;;;14.10;99.90;;;;;;481355;247;28369;-73
2022/06/04 01:26:13;;;;;;;2.50;2.40;;;14.10;99.90;;;;;;481313;247;28445;-72
2022/06/04 01:28:16;;;;;;;2.30;2.20;;;14.10;99.90;;;;;;481352;247;28280;-72
2022/06/04 01:30:16;;;;;;;2.43;2.33;;;14.00;99.90;;;;;;481281;247;28583;-72
2022/06/04 01:32:17;;;;;;;3.70;2.70;;;14.00;99.90;;;;;;481329;246;28788;-72
2022/06/04 01:34:18;;;;;;;2.20;2.10;;;13.90;99.90;;;;;;481333;247;28384;-73
2022/06/04 01:36:20;;;;;;;2.63;2.50;;;13.90;99.90;;;;;;481311;247;28975;-71
2022/06/04 01:38:22;;;;;;;2.40;2.30;;;13.80;99.90;;;;;;481354;247;28963;-72
2022/06/04 01:42:43;;;;;;;2.93;2.57;;;13.70;99.90;;;;;;481354;247;28235;-72
2022/06/04 01:44:43;;;;;;;2.63;2.47;;;13.80;99.90;;;;;;481230;247;28518;-73
2022/06/04 01:46:48;;;;;;;2.40;2.30;;;13.80;99.90;;;;;;481325;247;28203;-72
2022/06/04 01:48:46;;;;;;;2.70;2.50;;;13.80;99.90;;;;;;481131;247;28500;-72
2022/06/04 01:50:47;;;;;;;2.30;2.20;;;13.90;99.90;;;;;;481336;247;28379;-73
2022/06/04 01:52:48;;;;;;;2.77;2.57;;;13.80;99.90;;;;;;481333;247;28460;-72
2022/06/04 01:54:49;;;;;;;2.17;2.07;;;13.80;99.90;;;;;;481313;247;28786;-72
2022/06/04 01:56:51;;;;;;;2.70;2.50;;;13.80;99.90;;;;;;481320;247;28905;-71
2022/06/04 01:58:52;;;;;;;2.30;2.20;;;13.70;99.90;;;;;;481263;247;28801;-72
2022/06/04 02:00:53;;;;;;;2.23;2.13;;;13.70;99.90;;;;;;481342;247;28841;-72
2022/06/04 02:02:54;;;;;;;2.30;2.20;;;13.70;99.90;;;;;;481331;247;28118;-72
2022/06/04 02:04:56;;;;;;;2.60;2.40;;;13.60;99.90;;;;;;481340;247;28506;-72
2022/06/04 02:07:30;;;;;;;2.13;2.03;;;13.70;99.90;;;;;;481355;247;28204;-71
2022/06/04 02:09:04;;;;;;;2.40;2.30;;;13.70;99.90;;;;;;479596;247;28711;-72
2022/06/04 02:11:05;;;;;;;2.57;2.37;;;13.70;99.90;;;;;;481356;247;28969;-73
2022/06/04 02:13:08;;;;;;;2.07;1.97;;;13.70;99.90;;;;;;481348;247;28381;-72
2022/06/04 02:15:08;;;;;;;2.27;2.07;;;13.70;99.90;;;;;;481266;247;28181;-72
2022/06/04 02:17:09;;;;;;;2.57;2.47;;;13.70;99.90;;;;;;481339;247;28441;-72
2022/06/04 02:19:10;;;;;;;2.33;2.23;;;13.70;99.90;;;;;;481368;247;28130;-72
2022/06/04 02:21:12;;;;;;;2.67;2.47;;;13.70;99.90;;;;;;481353;247;28456;-72
2022/06/04 02:23:13;;;;;;;2.40;2.30;;;13.70;99.90;;;;;;481363;247;28825;-72
2022/06/04 02:25:14;;;;;;;2.33;2.23;;;13.70;99.90;;;;;;481336;247;28293;-72
2022/06/04 02:27:15;;;;;;;2.30;2.20;;;13.70;99.90;;;;;;481352;247;28331;-74
2022/06/04 02:29:17;;;;;;;2.77;2.57;;;13.70;99.90;;;;;;481366;247;28435;-72
2022/06/04 02:31:18;;;;;;;2.90;2.70;;;13.60;99.90;;;;;;481366;247;28826;-73
2022/06/04 02:33:19;;;;;;;3.60;3.30;;;13.50;99.90;;;;;;481359;247;29210;-71
2022/06/04 02:35:21;;;;;;;3.87;3.57;;;13.50;99.90;;;;;;481344;247;28753;-72
2022/06/04 02:37:22;;;;;;;3.93;3.63;;;13.40;99.90;;;;;;481337;247;28246;-72
2022/06/04 02:39:23;;;;;;;3.87;3.57;;;13.40;99.90;;;;;;481370;247;28201;-72
2022/06/04 02:41:24;;;;;;;3.20;3.00;;;13.50;99.90;;;;;;481371;247;28267;-72
2022/06/04 02:43:29;;;;;;;3.27;3.07;;;13.60;99.90;;;;;;481353;247;28078;-72
2022/06/04 02:45:27;;;;;;;3.40;3.10;;;13.70;99.90;;;;;;481135;247;28340;-71
2022/06/04 02:47:28;;;;;;;3.10;2.90;;;13.70;99.90;;;;;;481370;246;28372;-71
2022/06/04 02:49:29;;;;;;;2.77;2.57;;;13.70;99.90;;;;;;481399;247;28387;-72
2022/06/04 02:51:30;;;;;;;2.93;2.73;;;13.70;99.90;;;;;;481405;247;28536;-73
2022/06/04 02:53:32;;;;;;;2.87;2.70;;;13.70;99.90;;;;;;481380;247;28307;-72
2022/06/04 02:55:33;;;;;;;2.70;2.50;;;13.60;99.90;;;;;;481330;247;29082;-72
2022/06/04 02:57:34;;;;;;;3.20;2.90;;;13.50;99.90;;;;;;481350;247;28913;-74
2022/06/04 02:59:35;;;;;;;2.87;2.67;;;13.40;99.90;;;;;;481370;247;28693;-72
2022/06/04 03:01:37;;;;;;;2.50;2.40;;;13.40;99.90;;;;;;481342;247;28327;-72
2022/06/04 03:03:38;;;;;;;2.97;2.77;;;13.40;99.90;;;;;;481353;247;28196;-72
2022/06/04 03:05:39;;;;;;;2.83;2.63;;;13.40;99.90;;;;;;481340;247;28338;-72
2022/06/04 03:07:40;;;;;;;2.70;2.37;;;13.40;99.90;;;;;;481360;247;28140;-71
2022/06/04 03:09:44;;;;;;;2.53;2.43;;;;;;;;;;481383;247;28339;-72
2022/06/04 03:11:44;;;;;;;3.03;2.83;;;13.40;99.90;;;;;;481403;244;26949;-72
2022/06/04 03:13:45;;;;;;;2.50;2.40;;;13.40;99.90;;;;;;481354;247;28747;-72
2022/06/04 03:15:47;;;;;;;2.70;2.50;;;13.50;99.90;;;;;;481353;247;28257;-74
2022/06/04 03:17:48;;;;;;;2.60;2.40;;;13.50;99.90;;;;;;481358;247;28196;-72
2022/06/04 03:19:49;;;;;;;2.67;2.47;;;13.50;99.90;;;;;;481363;247;28396;-73
2022/06/04 03:21:50;;;;;;;2.40;2.30;;;13.40;99.90;;;;;;481346;247;28121;-72
2022/06/04 03:23:52;;;;;;;2.40;2.30;;;13.40;99.90;;;;;;481346;247;28262;-72
2022/06/04 03:25:53;;;;;;;3.00;2.80;;;13.40;99.90;;;;;;481377;247;28330;-73
2022/06/04 03:27:54;;;;;;;2.30;2.20;;;13.40;99.90;;;;;;481365;247;28110;-72
2022/06/04 03:29:55;;;;;;;2.80;2.60;;;13.40;99.90;;;;;;481345;247;28188;-72
2022/06/04 03:31:57;;;;;;;2.50;2.30;;;13.40;99.90;;;;;;481342;247;28775;-72
2022/06/04 03:33:59;;;;;;;2.57;2.47;;;;;;;;;;481340;246;28861;-71
2022/06/04 03:36:00;;;;;;;2.40;2.30;;;13.40;99.90;;;;;;481353;247;26584;-72
2022/06/04 03:38:01;;;;;;;2.60;2.40;;;13.30;99.90;;;;;;481355;247;28253;-72
2022/06/04 03:40:03;;;;;;;2.73;2.57;;;13.30;99.90;;;;;;481348;247;28193;-71
2022/06/04 03:42:04;;;;;;;3.10;2.90;;;13.30;99.90;;;;;;481363;247;28153;-72
2022/06/04 03:44:05;;;;;;;3.13;2.90;;;13.20;99.90;;;;;;481367;247;28162;-74
2022/06/04 03:46:06;;;;;;;3.30;3.10;;;13.10;99.90;;;;;;481344;247;28733;-72
2022/06/04 03:48:08;;;;;;;3.50;3.20;;;13.20;99.90;;;;;;481360;247;28727;-72
2022/06/04 03:50:09;;;;;;;3.00;2.80;;;13.40;99.90;;;;;;481359;247;28682;-72
2022/06/04 03:52:11;;;;;;;3.30;3.00;;;13.50;99.90;;;;;;481342;247;28207;-72
2022/06/04 03:54:11;;;;;;;2.53;2.43;;;13.50;99.90;;;;;;481371;247;28227;-75
2022/06/04 03:56:13;;;;;;;2.90;2.70;;;13.60;99.90;;;;;;481338;247;28450;-71
2022/06/04 03:58:14;;;;;;;2.80;2.60;;;13.70;99.90;;;;;;481346;247;28330;-72
2022/06/04 04:00:15;;;;;;;2.63;2.53;;;13.80;99.90;;;;;;481331;247;28325;-72
2022/06/04 04:02:16;;;;;;;3.03;2.83;;;13.80;99.90;;;;;;481345;247;28256;-72
2022/06/04 04:04:18;;;;;;;2.70;2.50;;;13.80;99.90;;;;;;481368;247;28499;-73
2022/06/04 04:06:19;;;;;;;2.60;2.50;;;13.80;99.90;;;;;;481357;247;28332;-72
2022/06/04 04:08:21;;;;;;;2.60;2.50;;;13.70;99.90;;;;;;481366;247;28405;-72
2022/06/04 04:10:21;;;;;;;2.33;2.23;;;13.50;99.90;;;;;;481330;247;29802;-71
2022/06/04 04:12:23;;;;;;;3.13;2.93;;;13.40;99.90;;;;;;481327;247;28905;-71
2022/06/04 04:14:24;;;;;;;2.80;2.60;;;13.40;99.90;;;;;;481355;247;28688;-72
2022/06/04 04:16:25;;;;;;;2.50;2.30;;;13.50;99.90;;;;;;481340;247;28817;-72
2022/06/04 04:18:26;;;;;;;2.90;2.70;;;13.50;99.90;;;;;;481382;247;28382;-73
2022/06/04 04:20:28;;;;;;;2.67;2.47;;;13.60;99.90;;;;;;481361;247;28408;-72
2022/06/04 04:22:29;;;;;;;3.17;2.97;;;13.70;99.90;;;;;;481364;247;28477;-72
2022/06/04 04:24:30;;;;;;;2.77;2.60;;;13.90;99.90;;;;;;481379;247;28827;-73
2022/06/04 04:26:32;;;;;;;3.20;3.00;;;13.90;99.90;;;;;;481358;247;28458;-72
2022/06/04 04:28:33;;;;;;;3.40;3.20;;;13.90;99.90;;;;;;481342;247;28493;-72
2022/06/04 04:30:34;;;;;;;3.50;3.30;;;13.80;99.90;;;;;;481326;247;28835;-71
2022/06/04 04:32:35;;;;;;;3.23;3.03;;;13.90;99.90;;;;;;481332;247;28382;-71
2022/06/04 04:34:37;;;;;;;3.03;2.83;;;14.00;99.90;;;;;;481368;247;29085;-72
2022/06/04 04:36:38;;;;;;;3.10;2.90;;;14.10;99.90;;;;;;481327;247;28796;-72
2022/06/04 04:38:39;;;;;;;4.50;2.97;;;14.20;99.90;;;;;;481206;247;29277;-72
2022/06/04 04:40:40;;;;;;;2.70;2.60;;;14.20;99.90;;;;;;481342;247;29004;-72
2022/06/04 04:42:42;;;;;;;3.80;3.50;;;14.30;99.90;;;;;;481304;247;28465;-72
2022/06/04 04:44:43;;;;;;;3.37;3.17;;;14.40;99.90;;;;;;481345;247;28795;-73
2022/06/04 04:46:44;;;;;;;3.70;3.40;;;14.50;99.90;;;;;;481361;247;28739;-72
2022/06/04 04:48:45;;;;;;;2.70;2.60;;;14.40;99.90;;;;;;481293;247;28840;-72
2022/06/04 04:50:47;;;;;;;3.07;2.87;;;14.50;99.90;;;;;;481330;247;28866;-72
2022/06/04 04:52:48;;;;;;;3.07;2.87;;;14.50;99.90;;;;;;481344;247;28807;-72
2022/06/04 04:54:49;;;;;;;3.43;3.00;;;14.50;99.90;;;;;;481363;247;28978;-73
2022/06/04 04:56:50;;;;;;;2.97;2.77;;;14.50;99.90;;;;;;481335;247;28875;-72
2022/06/04 04:58:52;;;;;;;2.80;2.60;;;14.60;99.90;;;;;;481312;247;28869;-72
2022/06/04 05:00:53;;;;;;;3.30;3.10;;;14.60;99.90;;;;;;481374;247;29198;-72
2022/06/04 05:02:54;;;;;;;3.33;3.10;;;14.70;99.90;;;;;;481343;247;29277;-71
2022/06/04 05:04:55;;;;;;;3.13;2.90;;;14.80;99.90;;;;;;481357;247;29402;-75
2022/06/04 05:06:57;;;;;;;3.33;3.13;;;14.90;99.90;;;;;;481342;247;28835;-72
2022/06/04 05:08:58;;;;;;;2.73;2.63;;;15.00;99.90;;;;;;481337;247;28792;-72
2022/06/04 05:10:59;;;;;;;3.03;2.83;;;15.10;99.90;;;;;;481345;247;28771;-72
2022/06/04 05:13:00;;;;;;;3.40;3.20;;;15.20;99.90;;;;;;481326;247;28786;-71
2022/06/04 05:15:02;;;;;;;3.33;3.10;;;15.20;99.90;;;;;;481361;247;28820;-75
2022/06/04 05:17:03;;;;;;;3.30;3.00;;;15.30;99.90;;;;;;481333;247;28763;-73
2022/06/04 05:19:04;;;;;;;3.20;2.70;;;15.30;99.90;;;;;;481340;247;28882;-72
2022/06/04 05:21:05;;;;;;;3.77;3.50;;;15.40;99.90;;;;;;481341;247;28774;-72
2022/06/04 05:23:07;;;;;;;3.30;3.10;;;15.40;99.90;;;;;;481333;247;28824;-72
2022/06/04 05:25:08;;;;;;;4.00;3.70;;;15.40;99.90;;;;;;481213;247;29276;-74
2022/06/04 05:27:09;;;;;;;3.40;3.20;;;15.50;99.90;;;;;;481335;247;29255;-72
2022/06/04 05:29:11;;;;;;;4.23;3.93;;;15.50;99.90;;;;;;481337;247;29331;-73
2022/06/04 05:31:12;;;;;;;4.37;4.07;;;15.40;99.90;;;;;;481317;247;29494;-72
2022/06/04 05:33:13;;;;;;;5.10;4.47;;;15.40;99.90;;;;;;481344;247;28777;-72
2022/06/04 05:35:14;;;;;;;4.40;4.03;;;15.40;99.90;;;;;;481341;247;28828;-73
2022/06/04 05:37:15;;;;;;;4.43;4.10;;;15.50;99.90;;;;;;481349;247;28760;-73
2022/06/04 05:39:17;;;;;;;4.70;4.30;;;15.50;99.90;;;;;;481382;247;28788;-72
2022/06/04 05:41:18;;;;;;;4.50;4.10;;;15.60;99.90;;;;;;481381;247;28860;-72
2022/06/04 05:43:19;;;;;;;4.80;4.40;;;15.80;99.90;;;;;;481376;247;28801;-72
2022/06/04 05:45:20;;;;;;;4.00;3.70;;;16.00;99.90;;;;;;481395;247;28860;-74
2022/06/04 05:47:22;;;;;;;3.70;3.50;;;16.20;99.90;;;;;;481384;247;28756;-72
2022/06/04 05:49:23;;;;;;;3.97;3.67;;;16.40;99.90;;;;;;481383;247;29281;-73
2022/06/04 05:51:24;;;;;;;3.97;3.77;;;16.40;99.90;;;;;;481367;247;29308;-72
2022/06/04 05:53:25;;;;;;;4.07;3.80;;;16.50;99.90;;;;;;481365;247;29218;-72
2022/06/04 05:55:27;;;;;;;4.40;4.00;;;16.60;99.90;;;;;;481390;247;29393;-75
2022/06/04 05:57:28;;;;;;;3.77;3.30;;;16.70;99.90;;;;;;481346;247;28882;-72
2022/06/04 05:59:29;;;;;;;3.53;3.33;;;16.70;99.90;;;;;;481363;247;28799;-72
2022/06/04 06:01:34;;;;;;;3.97;3.67;;;16.80;99.90;;;;;;481348;247;28757;-72
2022/06/04 06:03:32;;;;;;;3.70;3.43;;;16.80;99.90;;;;;;481201;247;28787;-73
2022/06/04 06:05:33;;;;;;;3.53;3.33;;;16.80;99.90;;;;;;481352;247;28876;-74
2022/06/04 06:07:34;;;;;;;3.20;3.00;;;16.80;99.90;;;;;;481380;247;28780;-72
2022/06/04 06:09:35;;;;;;;3.80;3.50;;;16.90;99.90;;;;;;481359;247;28792;-73
2022/06/04 06:11:37;;;;;;;3.57;3.27;;;17.00;99.90;;;;;;481343;247;29183;-72
2022/06/04 06:13:38;;;;;;;3.83;3.53;;;17.00;99.90;;;;;;481320;247;29327;-72
2022/06/04 06:15:39;;;;;;;3.67;3.37;;;17.10;99.90;;;;;;481316;247;29353;-73
2022/06/04 06:17:41;;;;;;;3.37;3.17;;;17.10;99.90;;;;;;481300;247;29254;-72
2022/06/04 06:19:42;;;;;;;3.33;3.13;;;17.10;99.90;;;;;;481307;247;29289;-73
2022/06/04 06:21:43;;;;;;;5.80;3.33;;;17.10;99.90;;;;;;481335;247;28752;-73
2022/06/04 06:23:44;;;;;;;3.50;3.30;;;17.10;99.90;;;;;;481338;247;28795;-72
2022/06/04 06:25:45;;;;;;;3.70;3.50;;;17.10;99.90;;;;;;481355;247;28797;-75
2022/06/04 06:27:47;;;;;;;3.60;3.40;;;17.10;99.90;;;;;;481333;247;28808;-72
2022/06/04 06:29:48;;;;;;;3.87;3.53;;;17.10;99.90;;;;;;481356;247;28792;-73
2022/06/04 06:31:49;;;;;;;4.20;3.90;;;17.10;99.90;;;;;;481385;247;28753;-72
2022/06/04 06:33:50;;;;;;;4.50;4.10;;;17.10;99.90;;;;;;481379;247;28807;-72
2022/06/04 06:35:52;;;;;;;4.90;4.53;;;17.20;99.90;;;;;;481371;247;28895;-74
2022/06/04 06:37:53;;;;;;;4.87;4.53;;;17.10;99.90;;;;;;481365;247;28761;-72
2022/06/04 06:39:55;;;;;;;5.00;4.60;;;17.10;99.90;;;;;;481360;247;29283;-74
2022/06/04 06:41:55;;;;;;;4.50;4.20;;;17.30;99.90;;;;;;481290;247;29216;-72
2022/06/04 06:43:57;;;;;;;5.80;4.80;;;17.40;99.90;;;;;;481357;247;29387;-72
2022/06/04 06:45:58;;;;;;;4.60;4.20;;;17.60;99.90;;;;;;481355;247;28780;-73
2022/06/04 06:47:59;;;;;;;4.50;4.20;;;17.70;99.90;;;;;;481368;247;28760;-73
2022/06/04 06:50:00;;;;;;;4.13;3.83;;;17.80;99.90;;;;;;481370;247;28854;-72
2022/06/04 06:52:02;;;;;;;5.90;4.63;;;17.90;99.90;;;;;;481362;247;28809;-73
2022/06/04 06:54:03;;;;;;;3.63;3.37;;;18.00;99.90;;;;;;481367;247;28874;-72
2022/06/04 06:56:05;;;;;;;4.10;3.80;;;18.10;99.90;;;;;;481395;247;28799;-74
2022/06/04 06:58:05;;;;;;;4.33;3.90;;;18.20;99.90;;;;;;481362;247;28745;-73
2022/06/04 07:00:07;;;;;;;4.03;3.73;;;18.20;99.90;;;;;;481389;247;28895;-72
2022/06/04 07:02:08;;;;;;;4.27;3.97;;;18.20;99.90;;;;;;481363;247;28840;-72
2022/06/04 07:04:09;;;;;;;4.00;3.60;;;18.10;99.90;;;;;;481357;247;29357;-72
2022/06/04 07:06:10;;;;;;;3.70;3.50;;;18.20;99.90;;;;;;481386;247;29343;-73
2022/06/04 07:08:12;;;;;;;3.83;3.53;;;18.30;99.90;;;;;;481395;247;29271;-72
2022/06/04 07:10:14;;;;;;;4.03;3.73;;;18.30;99.90;;;;;;481242;247;28867;-72
2022/06/04 07:12:14;;;;;;;4.30;3.90;;;18.20;99.90;;;;;;481278;247;28757;-72
2022/06/04 07:14:15;;;;;;;6.13;3.60;;;18.30;99.90;;;;;;481382;247;28764;-72
2022/06/04 07:16:17;;;;;;;3.80;3.60;;;18.30;99.90;;;;;;481368;247;28822;-73
2022/06/04 07:18:18;;;;;;;3.93;3.63;;;18.20;99.90;;;;;;481360;247;28832;-72
2022/06/04 07:20:20;;;;;;;4.63;4.27;;;18.10;99.90;;;;;;481366;247;28818;-73
2022/06/04 07:22:20;;;;;;;4.17;3.87;;;18.10;99.90;;;;;;481333;247;28867;-72
2022/06/04 07:24:22;;;;;;;3.80;3.60;;;18.10;99.90;;;;;;481350;247;28829;-73
2022/06/04 07:26:23;;;;;;;4.00;3.70;;;18.20;99.90;;;;;;481348;247;28799;-74
2022/06/04 07:28:24;;;;;;;3.73;3.43;;;18.30;99.90;;;;;;481368;247;29307;-72
2022/06/04 07:30:25;;;;;;;3.90;3.60;;;18.40;99.90;;;;;;481354;247;29367;-72
2022/06/04 07:32:27;;;;;;;4.00;3.70;;;18.50;99.90;;;;;;481374;247;29375;-72
2022/06/04 07:34:28;;;;;;;3.80;3.60;;;18.60;99.90;;;;;;481378;247;28744;-72
2022/06/04 07:36:29;;;;;;;3.53;3.33;;;18.80;99.90;;;;;;481370;247;28851;-73
2022/06/04 07:38:30;;;;;;;3.80;3.60;;;18.90;99.90;;;;;;481324;247;28757;-72
2022/06/04 07:40:32;;;;;;;4.07;3.77;;;19.00;99.90;;;;;;481364;247;28789;-73
2022/06/04 07:42:33;;;;;;;4.30;4.00;;;18.90;99.90;;;;;;481347;247;28777;-73
2022/06/04 07:44:34;;;;;;;4.30;3.90;;;19.10;99.90;;;;;;481349;247;29279;-73
2022/06/04 07:46:35;;;;;;;4.30;3.90;;;19.20;99.90;;;;;;481320;247;29280;-73
2022/06/04 07:48:37;;;;;;;4.40;4.10;;;19.30;99.90;;;;;;481330;247;29391;-72
2022/06/04 07:50:38;;;;;;;4.00;3.70;;;19.30;99.90;;;;;;481337;247;28788;-73
2022/06/04 07:52:39;;;;;;;4.30;3.97;;;19.20;99.90;;;;;;481365;247;28879;-75
2022/06/04 07:54:40;;;;;;;4.57;4.17;;;19.10;99.90;;;;;;481339;247;28760;-72
2022/06/04 07:56:42;;;;;;;5.10;4.70;;;19.00;99.90;;;;;;481365;247;28887;-73
2022/06/04 07:58:43;;;;;;;4.87;4.43;;;19.00;99.90;;;;;;481341;247;28774;-73
2022/06/04 08:00:44;;;;;;;4.87;4.57;;;19.10;99.90;;;;;;481318;247;28799;-73
2022/06/04 08:02:46;;;;;;;4.00;3.70;;;19.00;99.90;;;;;;481372;247;29208;-75
2022/06/04 08:04:47;;;;;;;5.10;4.60;;;19.10;99.90;;;;;;481332;247;28874;-73
2022/06/04 08:06:48;;;;;;;4.30;4.03;;;19.10;99.90;;;;;;481369;247;28855;-73
2022/06/04 08:08:54;;;;;;;4.80;4.40;;;19.10;99.90;;;;;;481347;247;29330;-72
2022/06/04 08:10:54;;;;;;;4.90;4.50;;;19.10;99.90;;;;;;481278;247;29314;-74
2022/06/04 08:12:58;;;;;;;5.20;4.80;;;19.20;99.90;;;;;;481363;247;28839;-72
2022/06/04 08:14:57;;;;;;;5.20;4.80;;;19.10;99.90;;;;;;481172;247;28816;-73
2022/06/04 08:16:57;;;;;;;4.57;4.17;;;19.00;99.90;;;;;;481316;247;28755;-72
2022/06/04 08:18:59;;;;;;;4.63;4.30;;;19.10;99.90;;;;;;481332;247;28788;-72
2022/06/04 08:21:00;;;;;;;4.50;4.20;;;19.10;99.90;;;;;;481365;247;28875;-75
2022/06/04 08:23:01;;;;;;;4.70;4.40;;;19.20;99.90;;;;;;481333;247;28882;-73
2022/06/04 08:25:02;;;;;;;4.90;4.50;;;19.20;99.90;;;;;;481351;247;28783;-72
2022/06/04 08:27:04;;;;;;;4.47;4.17;;;19.20;99.90;;;;;;481356;247;28768;-73
2022/06/04 08:29:05;;;;;;;5.30;4.90;;;19.20;99.90;;;;;;481349;247;28788;-72
2022/06/04 08:31:06;;;;;;;4.80;4.40;;;19.30;99.90;;;;;;481352;247;29378;-74
2022/06/04 08:33:07;;;;;;;4.20;3.90;;;19.40;99.90;;;;;;481368;247;29256;-72
2022/06/04 08:35:09;;;;;;;4.90;4.50;;;19.40;99.90;;;;;;481372;247;29365;-73
2022/06/04 08:37:10;;;;;;;4.80;4.40;;;19.40;99.90;;;;;;481379;247;28834;-72
2022/06/04 08:39:11;;;;;;;4.20;3.90;;;19.40;99.90;;;;;;481355;247;28781;-72
2022/06/04 08:41:12;;;;;;;3.83;3.60;;;19.40;99.90;;;;;;481393;247;28782;-74
2022/06/04 08:43:14;;;;;;;4.80;4.50;;;19.40;99.90;;;;;;481383;247;28795;-72
2022/06/04 08:45:15;;;;;;;4.10;3.80;;;19.40;99.90;;;;;;481372;247;28784;-74
2022/06/04 08:47:16;;;;;;;4.53;4.23;;;19.30;99.90;;;;;;481342;247;28796;-73
2022/06/04 08:49:17;;;;;;;4.40;4.10;;;19.40;99.90;;;;;;481335;247;28892;-73
2022/06/04 08:51:19;;;;;;;4.33;4.03;;;19.40;99.90;;;;;;481356;247;28812;-76
2022/06/04 08:53:20;;;;;;;5.13;4.73;;;19.40;99.90;;;;;;481350;247;28811;-73
2022/06/04 08:57:42;;;;;;;4.37;4.13;;;19.40;99.90;;;;;;481349;247;29157;-72
2022/06/04 08:59:42;;;;;;;4.30;4.00;;;19.50;99.90;;;;;;481288;247;28780;-73
2022/06/04 09:01:43;;;;;;;5.07;4.67;;;19.50;99.90;;;;;;481355;247;28808;-72
2022/06/04 09:03:46;;;;;;;4.80;4.50;;;19.50;99.90;;;;;;481362;247;28769;-72
2022/06/04 09:05:46;;;;;;;4.70;4.30;;;19.60;99.90;;;;;;481271;247;29366;-73
2022/06/04 09:07:47;;;;;;;5.37;4.87;;;19.70;99.90;;;;;;481356;247;29467;-72
2022/06/04 09:09:48;;;;;;;5.00;4.60;;;19.60;99.90;;;;;;481369;247;29295;-73
2022/06/04 09:11:50;;;;;;;4.57;4.27;;;19.60;99.90;;;;;;481348;247;28804;-73
2022/06/04 09:13:51;;;;;;;5.37;4.97;;;19.60;99.90;;;;;;481342;247;28839;-73
2022/06/04 09:15:52;;;;;;;6.00;5.40;;;19.60;99.90;;;;;;481297;247;28895;-72
2022/06/04 09:17:54;;;;;;;5.60;5.10;;;19.40;99.90;;;;;;481355;247;28895;-72
2022/06/04 09:19:55;;;;;;;6.50;6.00;;;19.50;99.90;;;;;;481359;247;28919;-72
2022/06/04 09:21:56;;;;;;;5.60;5.20;;;19.60;99.90;;;;;;481349;247;28806;-73
2022/06/04 09:23:57;;;;;;;6.17;5.73;;;19.50;99.90;;;;;;481326;247;28795;-72
2022/06/04 09:25:58;;;;;;;6.77;6.17;;;19.70;99.90;;;;;;481333;247;29352;-72
2022/06/04 09:28:00;;;;;;;6.70;6.20;;;19.70;99.90;;;;;;481349;247;30065;-73
2022/06/04 09:30:01;;;;;;;6.97;5.93;;;19.80;99.90;;;;;;481355;247;29288;-73
2022/06/04 09:32:03;;;;;;;6.33;5.83;;;19.90;99.90;;;;;;481307;247;28875;-73
2022/06/04 09:34:03;;;;;;;5.63;5.23;;;19.90;99.90;;;;;;481367;247;28879;-73
2022/06/04 09:36:05;;;;;;;5.30;4.80;;;20.00;99.90;;;;;;481343;247;28865;-72
2022/06/04 09:38:06;;;;;;;5.90;5.40;;;19.90;99.90;;;;;;481340;247;28843;-72
2022/06/04 09:40:07;;;;;;;5.30;4.90;;;19.90;99.90;;;;;;481330;247;28875;-73
2022/06/04 09:42:08;;;;;;;5.47;5.07;;;19.90;99.90;;;;;;481361;247;28807;-74
2022/06/04 09:44:10;;;;;;;5.60;5.20;;;19.90;99.90;;;;;;481351;247;28783;-73
2022/06/04 09:46:12;;;;;;;5.40;4.90;;;20.00;99.90;;;;;;481342;247;28883;-72
2022/06/04 09:48:12;;;;;;;5.20;4.80;;;20.00;99.90;;;;;;481372;247;28756;-73
2022/06/04 09:50:13;;;;;;;4.70;4.40;;;20.10;99.90;;;;;;481351;247;29320;-73
2022/06/04 09:52:15;;;;;;;5.63;5.23;;;20.10;99.90;;;;;;481352;247;29358;-73
2022/06/04 09:54:16;;;;;;;4.70;4.40;;;20.10;99.90;;;;;;481373;247;29277;-72
2022/06/04 09:56:17;;;;;;;5.17;4.77;;;20.10;99.90;;;;;;481362;247;29282;-73
2022/06/04 09:58:19;;;;;;;4.87;4.40;;;20.20;99.90;;;;;;481377;247;28776;-72
2022/06/04 10:00:20;;;;;;;5.27;4.87;;;20.20;99.90;;;;;;481374;247;28764;-73
2022/06/04 10:02:21;;;;;;;5.13;4.73;;;20.30;99.90;;;;;;481341;247;28852;-73
2022/06/04 10:04:23;;;;;;;5.53;5.13;;;20.30;99.90;;;;;;481350;247;28888;-73
2022/06/04 10:06:23;;;;;;;5.30;4.90;;;20.30;99.90;;;;;;481282;247;28814;-72
2022/06/04 10:08:25;;;;;;;5.50;5.10;;;20.40;99.90;;;;;;481340;247;28761;-73
2022/06/04 10:10:26;;;;;;;5.67;5.27;;;20.30;99.90;;;;;;481346;247;28794;-73
2022/06/04 10:13:42;;;;;;;5.20;4.80;;;20.40;99.90;;;;;;481329;247;28805;-74
2022/06/04 10:14:28;;;;;;;4.80;4.50;;;20.40;99.90;;;;;;479819;247;29345;-73
2022/06/04 10:16:30;;;;;;;5.03;4.63;;;20.40;99.90;;;;;;481335;247;29284;-73
2022/06/04 10:18:31;;;;;;;5.20;4.80;;;20.40;99.90;;;;;;481339;247;29209;-72
2022/06/04 10:20:32;;;;;;;4.70;4.40;;;20.50;99.90;;;;;;481335;247;29249;-73
2022/06/04 10:22:33;;;;;;;5.20;4.80;;;20.70;99.90;;;;;;481347;247;28800;-73
2022/06/04 10:24:35;;;;;;;4.63;4.30;;;20.80;99.90;;;;;;481386;247;28843;-73
2022/06/04 10:26:41;;;;;;;5.10;4.80;;;20.90;99.90;;;;;;481375;247;28858;-73
2022/06/04 10:28:41;;;;;;;4.93;4.60;;;21.00;99.90;;;;;;481213;247;28825;-74
2022/06/04 10:30:41;;;;;;;4.47;4.17;;;21.00;99.90;;;;;;481357;247;28787;-73
2022/06/04 10:32:42;;;;;;;5.53;5.13;;;21.10;99.90;;;;;;481353;247;28785;-73
2022/06/04 10:34:45;;;;;;;4.60;4.30;;;21.20;99.90;;;;;;481382;247;28817;-76
2022/06/04 10:36:45;;;;;;;5.03;4.73;;;21.30;99.90;;;;;;481286;247;28838;-73
2022/06/04 10:38:46;;;;;;;4.80;4.50;;;21.40;99.90;;;;;;481350;247;28814;-73
2022/06/04 10:40:47;;;;;;;4.50;4.20;;;21.30;99.90;;;;;;481339;247;28902;-72
2022/06/04 10:42:49;;;;;;;4.50;4.20;;;21.40;99.90;;;;;;481341;247;29349;-72
2022/06/04 10:44:50;;;;;;;4.80;4.40;;;21.40;99.90;;;;;;481356;247;29298;-74